Flight Track Log - Related Links

Times and Time Zones

All times are in EDT time to prevent confusion due to time zone crossing. See the SWA59 flight status page for this flight to view local times or setup timezone preferences in your user account.

Time Position Orientation Groundspeed Altitude Reporting Facility
EDT Latitude Longitude Course Direction KTS MPH feet Rate Location/Type
Tue 10:39:17 PM 32.9000 -96.9167 308° West 197 227 4,800  Level Dallas TRACON
Tue 10:40:17 PM 32.8833 -96.9667 248° West 233 268 8,700 3,282 Climbing Dallas TRACON
Tue 10:42:07 PM 32.7367 -96.9664 180° South 288 331 14,100 3,247 Climbing Fort Center
Tue 10:43:07 PM 32.6300 -96.9594 177° South 342 394 17,900 3,350 Climbing Fort Center
Tue 10:44:07 PM 32.5381 -96.9550 178° South 369 425 20,800 3,100 Climbing Fort Center
Tue 10:45:07 PM 32.4128 -96.9458 176° South 393 452 24,100 2,650 Climbing Fort Center
Tue 10:46:07 PM 32.3106 -96.9389 177° South 412 474 26,100 2,200 Climbing Fort Center
Tue 10:47:07 PM 32.1872 -96.9225 174° South 435 501 28,500 2,550 Climbing Fort Center
Tue 10:48:07 PM 32.0642 -96.8986 171° South 450 518 31,200 2,250 Climbing Fort Center
Tue 10:49:07 PM 31.9303 -96.8772 172° South 455 524 33,000 1,213 Climbing Fort Center
Tue 10:49:36 PM 31.8736 -96.8678 172° South 439 505 33,000  Level Houston Center
Tue 10:50:07 PM 31.8114 -96.8558 171° South 441 507 33,000  Level Fort Center
Tue 10:51:07 PM 31.6900 -96.8347 172° South 441 507 33,000  Level Fort Center
Tue 10:52:07 PM 31.5689 -96.8158 172° South 447 514 33,000  Level Fort Center
Tue 10:52:39 PM 31.5061 -96.8064 173° South 437 503 33,000  Level Houston Center
Tue 10:53:40 PM 31.3806 -96.7858 172° South 442 509 33,000 -443 Level Houston Center
Tue 10:54:41 PM 31.2586 -96.7508 166° South 450 518 32,100 -934 Descending Houston Center
Tue 10:55:42 PM 31.1364 -96.6867 156° South 471 542 31,100 -934 Descending Houston Center
Tue 10:56:43 PM 31.0150 -96.6244 156° South 471 542 30,200 -984 Descending Houston Center
Tue 10:57:44 PM 30.8942 -96.5608 156° South 469 540 29,100 -1,967 Descending Houston Center
Tue 10:58:45 PM 30.7750 -96.4992 156° South 464 534 26,200 -2,902 Descending Houston Center
Tue 10:59:46 PM 30.6614 -96.4403 156° South 447 514 23,200 -2,851 Descending Houston Center
Tue 11:00:26 PM 30.5917 -96.4047 156° South 428 493 21,400 -2,754 Descending Houston Center
Tue 11:00:47 PM 30.5531 -96.3842 155° Southeast 425 489 20,400 -2,836 Descending Houston Center
Tue 11:01:21 PM 30.4908 -96.3528 157° South 405 466 18,800 -2,656 Descending Houston Center
Tue 11:01:48 PM 30.4497 -96.3311 156° South 404 465 17,700 -2,618 Descending Houston Center
Tue 11:02:16 PM 30.4033 -96.3094 158° South 391 450 16,400 -2,754 Descending Houston Center
Tue 11:02:49 PM 30.3522 -96.2808 154° Southeast 385 443 14,900 -2,754 Descending Houston Center
Tue 11:03:17 PM 30.3025 -96.2578 158° South 369 425 13,600 -2,557 Descending Houston Center
Tue 11:03:50 PM 30.2569 -96.2322 154° Southeast 373 429 12,300 -2,361 Descending Houston Center
Tue 11:04:18 PM 30.2122 -96.2097 157° South 355 409 11,200 -1,279 Descending Houston Center
Tue 11:04:51 PM 30.1692 -96.1875 156° South 344 396 11,000 -111 Descending Houston Center
Tue 11:05:12 PM 30.1353 -96.1678 153° Southeast 335 386 11,100  Climbing Houston Center
Tue 11:05:52 PM 30.0964 -96.1469 155° Southeast 335 386 11,000  Descending Houston Center
Tue 11:06:19 PM 30.0408 -96.1181 156° South 334 384 11,100 -98 Climbing Houston Center
Tue 11:06:53 PM 29.9936 -96.0939 156° South 336 387 10,900  Descending Houston Center
Tue 11:07:20 PM 29.9550 -96.0725 154° Southeast 336 387 11,100  Climbing Houston Center
Tue 11:07:54 PM 29.9072 -96.0472 155° Southeast 341 392 10,900  Descending Houston Center
Tue 11:08:21 PM 29.8694 -96.0292 157° South 339 390 11,100 -98 Climbing Houston Center
Tue 11:08:55 PM 29.8261 -96.0056 155° Southeast 338 389 10,800 -700 Descending Houston Center
Tue 11:09:21 PM 29.7911 -95.9706 139° Southeast 308 354 10,400 -885 Descending Houston Center
Tue 11:09:56 PM 29.7739 -95.9308 117° Southeast 312 359 9,900 -984 Descending Houston Center
Tue 11:10:22 PM 29.7564 -95.8856 114° Southeast 289 333 9,400 -984 Descending Houston Center
Tue 11:10:57 PM 29.7392 -95.8481 118° Southeast 291 335 8,900 -1,091 Descending Houston Center
Tue 11:11:17 PM 29.7267 -95.8119 112° Southeast 279 321 8,400 -1,000 Descending Houston Center
Tue 11:11:57 PM 29.7081 -95.7667 115° Southeast 279 321 7,900 -1,250 Descending Houston Center
Tue 11:12:29 PM 29.6864 -95.7111 114° Southeast 279 321 6,900 -1,475 Descending Houston Center
Tue 11:12:58 PM 29.6750 -95.6864 118° Southeast 279 321 6,400 -1,418 Descending Houston Center
Tue 11:13:24 PM 29.6569 -95.6422 115° Southeast 268 308 5,600 -1,377 Descending Houston Center
Tue 11:13:59 PM 29.6439 -95.6106 115° Southeast 268 308 5,000 -885 Descending Houston Center
Tue 11:14:25 PM 29.6250 -95.5667 116° Southeast 254 292 4,700 -492 Descending Houston Center
Tue 11:15:00 PM 29.6147 -95.5392 113° Southeast 255 293 4,500 -492 Descending Houston Center
Tue 11:15:26 PM 29.6025 -95.5022 111° Southeast 211 243 4,200 -1,082 Descending Houston Center
Tue 11:16:01 PM 29.5989 -95.4758 99° East 218 251 3,400 -1,300 Descending Houston Center
Tue 11:16:26 PM 29.5939 -95.4311 97° East 228 262 2,900 -984 Descending Houston Center
Tue 11:17:02 PM 29.5903 -95.3906 96° East 222 255 2,400 -896 Descending Houston Center
Tue 11:17:33 PM 29.5914 -95.3592 88° East 182 209 1,900 -984 Descending Houston Center
Tue 11:18:03 PM 29.5975 -95.3342 74° East 199 229 1,400 -1,091 Descending Houston Center
Tue 11:18:28 PM 29.6108 -95.3186 45° Northeast 151 174 900 -1,000 Descending Houston Center
Tue 11:19:03 PM 29.6261 -95.2992 48° Northeast 168 193 400 -500 Descending Houston Center
Tue 11:20:04 PM 29.6519 -95.2703 44° Northeast 158 182 100 -295 Descending Houston Center

Login

Don't have an account? Register now (free) for customized features, flight alerts, and more!